Time;durP1;ratioP1;P1;durP2;ratioP2;P2;SDS_P1;SDS_P2;PMS_P1;PMS_P2;Temp;Humidity;BMP_temperature;BMP_pressure;BME280_temperature;BME280_humidity;BME280_pressure;Samples;Min_cycle;Max_cycle;Signal;HPM_P1;HPM_P2
2023/09/17 00:01:20;;;;;;;17.93;16.07;;;;;;;;;;5113420;28;20448;-63
2023/09/17 00:03:47;;;;;;;18.80;16.90;;;;;;;;;;5113924;28;20448;-63
2023/09/17 00:06:14;;;;;;;18.53;15.80;;;;;;;;;;5113786;28;20431;-63
2023/09/17 00:08:42;;;;;;;16.80;15.20;;;;;;;;;;5113285;28;20537;-63
2023/09/17 00:11:09;;;;;;;17.30;15.67;;;;;;;;;;5114027;28;20441;-63
2023/09/17 00:13:38;;;;;;;16.17;14.67;;;;;;;;;;5113500;28;20434;-63
2023/09/17 00:16:05;;;;;;;18.20;16.30;;;;;;;;;;5113212;28;20569;-63
2023/09/17 00:18:34;;;;;;;18.90;16.30;;;;;;;;;;5113202;28;20533;-62
2023/09/17 00:21:01;;;;;;;17.77;16.07;;;;;;;;;;5113668;28;20449;-63
2023/09/17 00:23:28;;;;;;;18.43;16.30;;;;;;;;;;5113450;28;20443;-62
2023/09/17 00:25:56;;;;;;;25.43;16.43;;;;;;;;;;5114111;28;20997;-62
2023/09/17 00:28:23;;;;;;;17.53;15.63;;;;;;;;;;5113294;28;20438;-63
2023/09/17 00:30:50;;;;;;;18.07;15.60;;;;;;;;;;5113377;28;20536;-63
2023/09/17 00:33:17;;;;;;;17.03;15.40;;;;;;;;;;5113265;28;20850;-63
2023/09/17 00:35:46;;;;;;;17.07;15.30;;;;;;;;;;5113256;28;20852;-63
2023/09/17 00:38:13;;;;;;;17.40;15.70;;;;;;;;;;5112874;28;20961;-63
2023/09/17 00:40:41;;;;;;;18.40;16.50;;;;;;;;;;5113874;28;20536;-63
2023/09/17 00:43:08;;;;;;;18.73;16.90;;;;;;;;;;5113345;28;20882;-63
2023/09/17 00:45:36;;;;;;;16.87;15.17;;;;;;;;;;5113443;28;20812;-62
2023/09/17 00:48:04;;;;;;;16.77;15.07;;;;;;;;;;5113079;28;20442;-63
2023/09/17 00:50:32;;;;;;;18.20;16.50;;;;;;;;;;5113202;28;20529;-63
2023/09/17 00:53:01;;;;;;;18.80;15.97;;;;;;;;;;5115021;28;20530;-63
2023/09/17 00:55:29;;;;;;;18.47;16.57;;;;;;;;;;5117793;28;20557;-63
2023/09/17 00:57:56;;;;;;;17.07;15.50;;;;;;;;;;5117340;28;20434;-63
2023/09/17 01:00:24;;;;;;;19.40;16.47;;;;;;;;;;5117265;28;20455;-63
2023/09/17 01:02:51;;;;;;;18.00;16.30;;;;;;;;;;5117562;28;20460;-63
2023/09/17 01:05:19;;;;;;;17.07;15.30;;;;;;;;;;5116764;28;20443;-63
2023/09/17 01:07:46;;;;;;;17.30;14.60;;;;;;;;;;5117178;28;20432;-63
2023/09/17 01:10:15;;;;;;;22.27;16.40;;;;;;;;;;5116919;28;20497;-63
2023/09/17 01:12:43;;;;;;;17.93;16.17;;;;;;;;;;5117064;28;20437;-63
2023/09/17 01:15:11;;;;;;;21.03;16.50;;;;;;;;;;5116611;28;20469;-63
2023/09/17 01:17:38;;;;;;;18.20;16.40;;;;;;;;;;5117137;28;20437;-63
2023/09/17 01:20:24;;;;;;;18.90;17.00;;;;;;;;;;5116547;28;20521;-63
2023/09/17 01:22:55;;;;;;;18.50;16.50;;;;;;;;;;5116997;28;20422;-63
2023/09/17 01:25:31;;;;;;;19.67;17.50;;;;;;;;;;5116758;28;20829;-63
2023/09/17 01:28:02;;;;;;;24.60;18.80;;;;;;;;;;5116347;28;20430;-63
2023/09/17 01:30:29;;;;;;;19.60;17.60;;;;;;;;;;5117020;28;20421;-63
2023/09/17 01:32:56;;;;;;;21.23;18.57;;;;;;;;;;5116563;28;20449;-63
2023/09/17 01:35:24;;;;;;;20.20;18.20;;;;;;;;;;5116563;28;20569;-63
2023/09/17 01:37:55;;;;;;;23.00;19.97;;;;;;;;;;5116489;28;20482;-63
2023/09/17 01:40:22;;;;;;;21.13;18.00;;;;;;;;;;5116567;28;20429;-63
2023/09/17 01:42:50;;;;;;;24.20;19.43;;;;;;;;;;5116628;28;20460;-63
2023/09/17 01:45:19;;;;;;;21.37;18.73;;;;;;;;;;5116343;28;20446;-63
2023/09/17 01:47:47;;;;;;;21.50;19.33;;;;;;;;;;5116515;28;20443;-63
2023/09/17 01:50:15;;;;;;;23.57;19.03;;;;;;;;;;5115979;28;20491;-63
2023/09/17 01:52:44;;;;;;;21.60;18.60;;;;;;;;;;5116177;28;20527;-63
2023/09/17 01:55:11;;;;;;;21.43;18.07;;;;;;;;;;5115955;28;20819;-63
2023/09/17 01:57:39;;;;;;;20.37;18.37;;;;;;;;;;5115732;28;20531;-63
2023/09/17 02:00:14;;;;;;;21.83;19.57;;;;;;;;;;5116558;28;20450;-63
2023/09/17 02:02:46;;;;;;;20.90;18.80;;;;;;;;;;5116011;28;20983;-63
2023/09/17 02:05:13;;;;;;;21.63;19.37;;;;;;;;;;5115105;28;20432;-63
2023/09/17 02:07:41;;;;;;;21.33;19.33;;;;;;;;;;5116020;28;20437;-63
2023/09/17 02:10:08;;;;;;;22.07;19.97;;;;;;;;;;5116112;28;20521;-63
2023/09/17 02:12:36;;;;;;;21.83;19.57;;;;;;;;;;5115724;28;20860;-63
2023/09/17 02:15:03;;;;;;;26.10;21.00;;;;;;;;;;5115890;28;20449;-63
2023/09/17 02:17:30;;;;;;;22.03;19.40;;;;;;;;;;5115654;28;20433;-64
2023/09/17 02:19:59;;;;;;;21.73;19.50;;;;;;;;;;5116055;28;20477;-63
2023/09/17 02:22:26;;;;;;;29.97;20.87;;;;;;;;;;5115281;28;20871;-63
2023/09/17 02:24:53;;;;;;;24.27;21.70;;;;;;;;;;5115507;28;20470;-63
2023/09/17 02:27:21;;;;;;;23.93;21.10;;;;;;;;;;5115869;28;20441;-63
2023/09/17 02:29:49;;;;;;;25.37;22.57;;;;;;;;;;5115502;28;20442;-63
2023/09/17 02:32:16;;;;;;;23.40;20.90;;;;;;;;;;5115373;28;20812;-63
2023/09/17 02:34:43;;;;;;;23.83;21.33;;;;;;;;;;5115363;28;20442;-63
2023/09/17 02:37:12;;;;;;;25.53;22.80;;;;;;;;;;5115278;28;20516;-63
2023/09/17 02:39:39;;;;;;;25.00;21.30;;;;;;;;;;5115263;28;20534;-63
2023/09/17 02:42:06;;;;;;;26.30;21.33;;;;;;;;;;5115879;28;20440;-63
2023/09/17 02:44:33;;;;;;;23.90;21.30;;;;;;;;;;5115386;28;20552;-63
2023/09/17 02:47:02;;;;;;;23.60;20.97;;;;;;;;;;5114771;28;20463;-63
2023/09/17 02:49:29;;;;;;;25.63;22.63;;;;;;;;;;5115099;28;20446;-63
2023/09/17 02:51:56;;;;;;;26.97;21.70;;;;;;;;;;5115092;28;20459;-63
2023/09/17 02:54:25;;;;;;;23.53;21.20;;;;;;;;;;5115196;28;20536;-63
2023/09/17 02:56:52;;;;;;;25.47;22.73;;;;;;;;;;5114896;28;20479;-63
2023/09/17 02:59:19;;;;;;;25.47;22.13;;;;;;;;;;5114527;28;20534;-63
2023/09/17 03:01:47;;;;;;;26.47;23.67;;;;;;;;;;5114902;28;20451;-63
2023/09/17 03:04:14;;;;;;;24.57;20.97;;;;;;;;;;5114383;28;20445;-63
2023/09/17 03:06:41;;;;;;;26.43;22.70;;;;;;;;;;5114823;28;20532;-63
2023/09/17 03:09:11;;;;;;;27.50;21.87;;;;;;;;;;5114686;28;20477;-63
2023/09/17 03:11:40;;;;;;;26.27;22.27;;;;;;;;;;5115162;28;20438;-63
2023/09/17 03:14:07;;;;;;;30.33;23.53;;;;;;;;;;5114442;28;20456;-64
2023/09/17 03:16:34;;;;;;;24.37;21.30;;;;;;;;;;5113842;28;20866;-63
2023/09/17 03:19:02;;;;;;;23.83;21.37;;;;;;;;;;5114802;28;20525;-63
2023/09/17 03:21:29;;;;;;;26.83;22.30;;;;;;;;;;5115143;28;20823;-63
2023/09/17 03:23:56;;;;;;;26.97;21.33;;;;;;;;;;5114370;28;20485;-62
2023/09/17 03:26:24;;;;;;;26.13;23.37;;;;;;;;;;5114100;28;20939;-62
2023/09/17 03:28:53;;;;;;;27.47;21.93;;;;;;;;;;5114274;28;20445;-63
2023/09/17 03:31:20;;;;;;;25.33;22.63;;;;;;;;;;5114347;28;20771;-63
2023/09/17 03:33:47;;;;;;;22.73;20.50;;;;;;;;;;5114197;28;20444;-63
2023/09/17 03:36:14;;;;;;;23.20;20.90;;;;;;;;;;5114355;28;20564;-62
2023/09/17 03:38:41;;;;;;;23.43;19.13;;;;;;;;;;5113804;28;20446;-62
2023/09/17 03:41:09;;;;;;;20.47;18.27;;;;;;;;;;5114099;28;20528;-62
2023/09/17 03:43:36;;;;;;;24.40;21.40;;;;;;;;;;5113964;28;20531;-62
2023/09/17 03:46:05;;;;;;;24.83;22.00;;;;;;;;;;5114622;28;20863;-62
2023/09/17 03:48:32;;;;;;;24.00;21.40;;;;;;;;;;5113941;28;20536;-62
2023/09/17 03:51:00;;;;;;;23.27;20.20;;;;;;;;;;5108368;28;20441;-62
2023/09/17 03:53:28;;;;;;;22.97;20.60;;;;;;;;;;5112885;28;20466;-63
2023/09/17 03:55:55;;;;;;;24.17;21.57;;;;;;;;;;5113110;28;20476;-63
2023/09/17 03:58:22;;;;;;;27.60;20.60;;;;;;;;;;5113906;28;20525;-63
2023/09/17 04:00:49;;;;;;;24.60;20.67;;;;;;;;;;5113106;28;20439;-63
2023/09/17 04:03:19;;;;;;;22.77;20.37;;;;;;;;;;5113305;28;20906;-62
2023/09/17 04:05:46;;;;;;;23.03;20.70;;;;;;;;;;5113825;28;20427;-62
2023/09/17 04:08:13;;;;;;;24.07;21.47;;;;;;;;;;5113394;28;20626;-63
2023/09/17 04:10:40;;;;;;;21.90;19.13;;;;;;;;;;5112763;28;20537;-63
2023/09/17 04:13:09;;;;;;;22.07;19.97;;;;;;;;;;5113221;28;20518;-63
2023/09/17 04:15:37;;;;;;;26.00;21.10;;;;;;;;;;5113071;28;20443;-63
2023/09/17 04:18:05;;;;;;;23.90;20.80;;;;;;;;;;5113071;28;20446;-63
2023/09/17 04:20:34;;;;;;;25.63;21.03;;;;;;;;;;5109428;28;20749;-62
2023/09/17 04:23:02;;;;;;;25.03;21.10;;;;;;;;;;5093238;28;20499;-63
2023/09/17 04:25:30;;;;;;;24.57;21.87;;;;;;;;;;5108848;28;20470;-63
2023/09/17 04:27:57;;;;;;;23.93;21.43;;;;;;;;;;5113089;28;20449;-63
2023/09/17 04:30:24;;;;;;;23.80;21.47;;;;;;;;;;5113040;28;20433;-63
2023/09/17 04:32:52;;;;;;;23.87;21.37;;;;;;;;;;5113804;28;20496;-63
2023/09/17 04:35:19;;;;;;;26.93;20.90;;;;;;;;;;5112750;28;20495;-63
2023/09/17 04:37:49;;;;;;;28.80;22.10;;;;;;;;;;5112694;28;20992;-62
2023/09/17 04:40:17;;;;;;;29.10;21.90;;;;;;;;;;5112886;28;20923;-63
2023/09/17 04:42:45;;;;;;;26.10;23.53;;;;;;;;;;5113244;28;20552;-62
2023/09/17 04:45:13;;;;;;;27.30;22.00;;;;;;;;;;5113129;28;20437;-62
2023/09/17 04:47:41;;;;;;;30.20;21.93;;;;;;;;;;5113165;28;20487;-62
2023/09/17 04:50:09;;;;;;;23.47;20.47;;;;;;;;;;5113084;28;20448;-62
2023/09/17 04:52:36;;;;;;;25.60;23.03;;;;;;;;;;5112401;28;20437;-62
2023/09/17 04:55:05;;;;;;;33.40;23.33;;;;;;;;;;5113101;28;20453;-62
2023/09/17 04:57:32;;;;;;;26.60;23.83;;;;;;;;;;5113109;28;20488;-62
2023/09/17 05:00:07;;;;;;;25.83;23.13;;;;;;;;;;5112569;28;20446;-62
2023/09/17 05:02:35;;;;;;;26.30;23.60;;;;;;;;;;5113339;28;20508;-62
2023/09/17 05:05:03;;;;;;;27.30;24.40;;;;;;;;;;5113352;28;20523;-63
2023/09/17 05:07:30;;;;;;;28.47;23.40;;;;;;;;;;5113376;28;20445;-62
2023/09/17 05:09:57;;;;;;;31.73;24.53;;;;;;;;;;5113041;28;20516;-63
2023/09/17 05:12:25;;;;;;;27.67;24.67;;;;;;;;;;5112801;28;20437;-63
2023/09/17 05:14:53;;;;;;;28.13;24.30;;;;;;;;;;5112840;28;20531;-63
2023/09/17 05:17:20;;;;;;;29.70;24.87;;;;;;;;;;5112938;28;20480;-63
2023/09/17 05:19:47;;;;;;;32.13;26.47;;;;;;;;;;5112633;28;20449;-62
2023/09/17 05:22:15;;;;;;;29.60;26.53;;;;;;;;;;5112697;28;20449;-62
2023/09/17 05:24:42;;;;;;;30.00;26.83;;;;;;;;;;5112744;28;20473;-62
2023/09/17 05:27:09;;;;;;;33.23;26.20;;;;;;;;;;5112778;28;20817;-62
2023/09/17 05:29:38;;;;;;;32.23;27.20;;;;;;;;;;5112657;28;20442;-62
2023/09/17 05:32:05;;;;;;;32.17;27.20;;;;;;;;;;5112187;28;20939;-62
2023/09/17 05:34:32;;;;;;;32.90;26.83;;;;;;;;;;5112389;28;21024;-62
2023/09/17 05:36:59;;;;;;;34.57;30.67;;;;;;;;;;5112123;28;20962;-62
2023/09/17 05:39:26;;;;;;;32.87;29.20;;;;;;;;;;5113315;28;20915;-62
2023/09/17 05:41:55;;;;;;;32.03;28.50;;;;;;;;;;5116317;28;20815;-62
2023/09/17 05:44:22;;;;;;;31.40;28.20;;;;;;;;;;5116443;28;20445;-62
2023/09/17 05:46:51;;;;;;;35.73;29.63;;;;;;;;;;5115698;28;20502;-62
2023/09/17 05:49:18;;;;;;;35.17;31.40;;;;;;;;;;5116238;28;20528;-63
2023/09/17 05:51:45;;;;;;;33.20;29.07;;;;;;;;;;5115927;28;20437;-63
2023/09/17 05:54:12;;;;;;;38.80;31.03;;;;;;;;;;5115703;28;20447;-63
2023/09/17 05:56:40;;;;;;;39.27;29.00;;;;;;;;;;5115637;28;20476;-62
2023/09/17 05:59:07;;;;;;;35.33;28.70;;;;;;;;;;5115850;28;20441;-62
2023/09/17 06:01:34;;;;;;;33.10;29.10;;;;;;;;;;5115790;28;20442;-63
2023/09/17 06:04:03;;;;;;;32.90;29.40;;;;;;;;;;5115713;28;20441;-62
2023/09/17 06:06:30;;;;;;;33.30;29.80;;;;;;;;;;5115744;28;20788;-64
2023/09/17 06:08:57;;;;;;;31.33;27.20;;;;;;;;;;5115667;28;20532;-64
2023/09/17 06:11:24;;;;;;;30.17;26.90;;;;;;;;;;5115546;28;20528;-67
2023/09/17 06:13:51;;;;;;;36.90;31.13;;;;;;;;;;5115642;28;20441;-66
2023/09/17 06:16:18;;;;;;;32.40;27.97;;;;;;;;;;5115359;28;20438;-67
2023/09/17 06:18:46;;;;;;;32.37;28.60;;;;;;;;;;5115020;28;20447;-67
2023/09/17 06:21:15;;;;;;;29.57;26.23;;;;;;;;;;5115118;28;20498;-67
2023/09/17 06:23:42;;;;;;;32.30;28.90;;;;;;;;;;5115247;28;20441;-67
2023/09/17 06:26:09;;;;;;;31.07;27.93;;;;;;;;;;5131036;27;20445;-66
2023/09/17 06:28:36;;;;;;;30.70;26.70;;;;;;;;;;5135715;27;20523;-63
2023/09/17 06:31:04;;;;;;;30.83;25.33;;;;;;;;;;5135452;27;20805;-64
2023/09/17 06:33:31;;;;;;;30.03;26.90;;;;;;;;;;5135726;27;20448;-63
2023/09/17 06:35:58;;;;;;;30.40;27.13;;;;;;;;;;5135551;27;20528;-63
2023/09/17 06:38:27;;;;;;;33.70;27.67;;;;;;;;;;5135863;27;20476;-63
2023/09/17 06:40:54;;;;;;;31.20;27.80;;;;;;;;;;5135670;27;20760;-64
2023/09/17 06:43:22;;;;;;;29.97;26.73;;;;;;;;;;5135645;27;20531;-63
2023/09/17 06:45:49;;;;;;;34.97;28.10;;;;;;;;;;5135356;27;20498;-63
2023/09/17 06:48:16;;;;;;;30.73;27.30;;;;;;;;;;5135440;27;20837;-65
2023/09/17 06:50:43;;;;;;;28.20;25.13;;;;;;;;;;5135640;27;20441;-65
2023/09/17 06:53:10;;;;;;;28.90;24.73;;;;;;;;;;5135197;27;21030;-64
2023/09/17 06:55:39;;;;;;;28.33;24.97;;;;;;;;;;5135945;27;20528;-63
2023/09/17 06:58:06;;;;;;;29.27;24.90;;;;;;;;;;5135410;27;20583;-63
2023/09/17 07:00:33;;;;;;;30.47;25.97;;;;;;;;;;5135157;27;20490;-64
2023/09/17 07:03:01;;;;;;;29.50;26.40;;;;;;;;;;5135342;27;20438;-63
2023/09/17 07:05:28;;;;;;;29.27;26.17;;;;;;;;;;5135815;27;20447;-64
2023/09/17 07:07:55;;;;;;;31.00;25.80;;;;;;;;;;5134889;27;20658;-64
2023/09/17 07:10:22;;;;;;;27.37;24.53;;;;;;;;;;5134962;27;20943;-63
2023/09/17 07:12:51;;;;;;;26.07;22.57;;;;;;;;;;5135061;27;20767;-63
2023/09/17 07:15:20;;;;;;;27.20;24.23;;;;;;;;;;5134817;27;20437;-63
2023/09/17 07:17:47;;;;;;;25.23;22.77;;;;;;;;;;5135007;27;20470;-63
2023/09/17 07:20:14;;;;;;;26.47;22.33;;;;;;;;;;5134506;27;20530;-63
2023/09/17 07:22:41;;;;;;;25.40;22.90;;;;;;;;;;5135110;27;20434;-63
2023/09/17 07:25:09;;;;;;;25.97;23.17;;;;;;;;;;5134611;27;20472;-63
2023/09/17 07:27:36;;;;;;;25.33;22.37;;;;;;;;;;5134545;27;20449;-63
2023/09/17 07:30:05;;;;;;;25.20;22.70;;;;;;;;;;5134795;27;20442;-63
2023/09/17 07:32:32;;;;;;;26.33;23.53;;;;;;;;;;5134813;27;20468;-63
2023/09/17 07:35:01;;;;;;;27.43;23.07;;;;;;;;;;5134701;27;20805;-63
2023/09/17 07:37:28;;;;;;;24.90;22.40;;;;;;;;;;5134333;27;20501;-63
2023/09/17 07:39:57;;;;;;;23.53;21.07;;;;;;;;;;5134223;27;20516;-63
2023/09/17 07:42:24;;;;;;;22.87;20.27;;;;;;;;;;5133968;27;20528;-63
2023/09/17 07:44:52;;;;;;;23.37;20.97;;;;;;;;;;5134056;27;20438;-63
2023/09/17 07:47:20;;;;;;;24.43;20.63;;;;;;;;;;5134107;27;21020;-63
2023/09/17 07:49:47;;;;;;;24.17;21.27;;;;;;;;;;5134321;27;20442;-63
2023/09/17 07:52:14;;;;;;;24.17;21.73;;;;;;;;;;5134168;27;20449;-63
2023/09/17 07:54:42;;;;;;;22.07;19.77;;;;;;;;;;5134158;27;20440;-63
2023/09/17 07:57:09;;;;;;;23.07;20.40;;;;;;;;;;5134341;27;20503;-63
2023/09/17 07:59:37;;;;;;;21.47;19.27;;;;;;;;;;5134465;27;20448;-63
2023/09/17 08:02:04;;;;;;;22.30;18.57;;;;;;;;;;5133723;27;20441;-63
2023/09/17 08:04:33;;;;;;;22.80;20.50;;;;;;;;;;5133903;27;20442;-63
2023/09/17 08:07:00;;;;;;;22.70;20.50;;;;;;;;;;5134162;27;20438;-63
2023/09/17 08:09:27;;;;;;;21.53;19.20;;;;;;;;;;5133549;27;20441;-64
2023/09/17 08:11:55;;;;;;;20.60;18.40;;;;;;;;;;5133787;27;20442;-63
2023/09/17 08:14:22;;;;;;;19.57;17.67;;;;;;;;;;5133634;27;20448;-63
2023/09/17 08:16:50;;;;;;;21.17;18.97;;;;;;;;;;5133801;27;20478;-63
2023/09/17 08:19:17;;;;;;;19.00;16.40;;;;;;;;;;5133612;27;20442;-63
2023/09/17 08:21:46;;;;;;;18.70;16.70;;;;;;;;;;5133508;27;20444;-63
2023/09/17 08:24:14;;;;;;;23.00;16.40;;;;;;;;;;5133380;27;20478;-63
2023/09/17 08:26:41;;;;;;;19.27;17.20;;;;;;;;;;5134345;27;20514;-63
2023/09/17 08:29:09;;;;;;;18.30;16.43;;;;;;;;;;5133578;27;20452;-63
2023/09/17 08:31:38;;;;;;;16.33;14.83;;;;;;;;;;5133559;27;20434;-63
2023/09/17 08:34:05;;;;;;;15.47;13.80;;;;;;;;;;5133175;27;20950;-63
2023/09/17 08:36:33;;;;;;;15.60;14.07;;;;;;;;;;5133404;28;20473;-63
2023/09/17 08:39:03;;;;;;;14.30;12.90;;;;;;;;;;5133977;28;20479;-62
2023/09/17 08:41:31;;;;;;;12.97;11.77;;;;;;;;;;5133473;28;20416;-63
2023/09/17 08:43:59;;;;;;;15.13;12.57;;;;;;;;;;5133256;28;20932;-64
2023/09/17 08:46:26;;;;;;;13.03;11.83;;;;;;;;;;5133720;28;20446;-63
2023/09/17 08:48:53;;;;;;;14.17;12.60;;;;;;;;;;5133496;28;20781;-63
2023/09/17 08:51:23;;;;;;;13.73;10.20;;;;;;;;;;5133591;28;20526;-64
2023/09/17 08:53:54;;;;;;;10.60;9.70;;;;;;;;;;5133185;28;20443;-64
2023/09/17 08:56:23;;;;;;;10.93;9.93;;;;;;;;;;5133340;28;20984;-64
2023/09/17 08:58:52;;;;;;;11.13;9.43;;;;;;;;;;5133302;28;20487;-64
2023/09/17 09:01:21;;;;;;;11.40;10.30;;;;;;;;;;5133031;28;20435;-64
2023/09/17 09:03:49;;;;;;;10.53;9.60;;;;;;;;;;5133198;28;20443;-63
2023/09/17 09:06:17;;;;;;;10.90;10.00;;;;;;;;;;5133132;28;20478;-63
2023/09/17 09:08:45;;;;;;;11.37;10.10;;;;;;;;;;5132674;28;20470;-63
2023/09/17 09:11:12;;;;;;;11.20;10.10;;;;;;;;;;5133239;28;20526;-63
2023/09/17 09:13:42;;;;;;;10.50;9.57;;;;;;;;;;5133010;27;20531;-63
2023/09/17 09:16:09;;;;;;;11.07;10.07;;;;;;;;;;5136987;27;20936;-63
2023/09/17 09:18:36;;;;;;;8.97;8.10;;;;;;;;;;5137234;27;20530;-63
2023/09/17 09:21:04;;;;;;;9.03;8.27;;;;;;;;;;5136884;27;20438;-63
2023/09/17 09:23:31;;;;;;;10.23;8.17;;;;;;;;;;5137044;27;20533;-63
2023/09/17 09:25:58;;;;;;;8.20;7.50;;;;;;;;;;5137293;27;20506;-63
2023/09/17 09:28:24;;;;;;;9.10;7.63;;;;;;;;;;5137106;27;20447;-64
2023/09/17 09:30:53;;;;;;;9.00;8.10;;;;;;;;;;5136992;27;20448;-63
2023/09/17 09:33:21;;;;;;;7.50;6.90;;;;;;;;;;5137025;27;20442;-63
2023/09/17 09:35:50;;;;;;;10.73;9.73;;;;;;;;;;5136801;27;20434;-63
2023/09/17 09:38:18;;;;;;;10.20;9.20;;;;;;;;;;5136850;27;20487;-63
2023/09/17 09:40:45;;;;;;;11.93;8.43;;;;;;;;;;5136393;27;20440;-63
2023/09/17 09:43:18;;;;;;;8.73;7.87;;;;;;;;;;5136856;27;20606;-63
2023/09/17 09:45:45;;;;;;;9.17;8.33;;;;;;;;;;5136889;27;20860;-63
2023/09/17 09:48:15;;;;;;;9.47;8.53;;;;;;;;;;5136476;27;20446;-64
2023/09/17 09:50:43;;;;;;;8.70;8.00;;;;;;;;;;5136733;27;20437;-63
2023/09/17 09:53:10;;;;;;;8.53;7.63;;;;;;;;;;5136906;27;20457;-63
2023/09/17 09:55:37;;;;;;;8.00;7.27;;;;;;;;;;5136579;27;20449;-63
2023/09/17 09:58:05;;;;;;;8.50;7.70;;;;;;;;;;5136225;27;20475;-64
2023/09/17 10:00:33;;;;;;;7.57;6.93;;;;;;;;;;5136312;27;20436;-63
2023/09/17 10:03:00;;;;;;;8.53;7.73;;;;;;;;;;5136859;27;20430;-63
2023/09/17 10:05:37;;;;;;;17.23;7.40;;;;;;;;;;5136351;27;20441;-63
2023/09/17 10:08:05;;;;;;;7.67;7.03;;;;;;;;;;5136092;27;20908;-63
2023/09/17 10:10:33;;;;;;;8.83;7.60;;;;;;;;;;5136006;27;20941;-63
2023/09/17 10:13:03;;;;;;;7.97;7.17;;;;;;;;;;5135982;27;20531;-63
2023/09/17 10:15:31;;;;;;;7.73;7.03;;;;;;;;;;5135983;27;20421;-63
2023/09/17 10:17:58;;;;;;;7.63;6.97;;;;;;;;;;5136146;27;20483;-63
2023/09/17 10:20:26;;;;;;;8.23;7.03;;;;;;;;;;5135770;27;20445;-63
2023/09/17 10:22:55;;;;;;;8.10;7.30;;;;;;;;;;5136149;27;20536;-63
2023/09/17 10:25:23;;;;;;;6.87;6.20;;;;;;;;;;5135451;27;20476;-63
2023/09/17 10:27:51;;;;;;;8.23;6.70;;;;;;;;;;5135993;27;20438;-63
2023/09/17 10:30:20;;;;;;;6.20;5.70;;;;;;;;;;5135666;27;20434;-63
2023/09/17 10:32:48;;;;;;;6.70;6.10;;;;;;;;;;5136015;27;20445;-63
2023/09/17 10:35:15;;;;;;;7.10;5.70;;;;;;;;;;5135846;27;20535;-63
2023/09/17 10:37:42;;;;;;;8.33;6.30;;;;;;;;;;5135262;27;20524;-63
2023/09/17 10:40:12;;;;;;;5.67;5.13;;;;;;;;;;5135882;27;20529;-63
2023/09/17 10:42:39;;;;;;;7.20;6.13;;;;;;;;;;5135525;27;20516;-63
2023/09/17 10:45:08;;;;;;;7.27;6.37;;;;;;;;;;5135383;27;20463;-63
2023/09/17 10:47:37;;;;;;;6.80;6.30;;;;;;;;;;5135839;27;20432;-63
2023/09/17 10:50:04;;;;;;;7.40;6.80;;;;;;;;;;5135334;27;20445;-63
2023/09/17 10:52:32;;;;;;;8.17;7.47;;;;;;;;;;5135589;27;20442;-63
2023/09/17 10:54:59;;;;;;;8.13;6.33;;;;;;;;;;5135090;27;20456;-63
2023/09/17 10:57:33;;;;;;;6.90;6.13;;;;;;;;;;5135517;27;20553;-63
2023/09/17 11:00:01;;;;;;;6.57;6.07;;;;;;;;;;5134781;27;20461;-63
2023/09/17 11:02:28;;;;;;;7.43;6.73;;;;;;;;;;5135476;27;20996;-63
2023/09/17 11:04:57;;;;;;;7.70;6.00;;;;;;;;;;5135305;27;20525;-63
2023/09/17 11:07:26;;;;;;;7.33;6.60;;;;;;;;;;5134926;27;20433;-63
2023/09/17 11:09:53;;;;;;;6.57;5.97;;;;;;;;;;5134800;27;20442;-63
2023/09/17 11:12:23;;;;;;;11.13;6.77;;;;;;;;;;5135084;27;20867;-63
2023/09/17 11:14:52;;;;;;;6.30;5.77;;;;;;;;;;5135385;27;20470;-63
2023/09/17 11:17:20;;;;;;;5.17;4.77;;;;;;;;;;5135105;27;20459;-63
2023/09/17 11:19:47;;;;;;;5.43;5.03;;;;;;;;;;5134781;27;20563;-63
2023/09/17 11:22:14;;;;;;;6.70;6.10;;;;;;;;;;5134489;27;20429;-64
2023/09/17 11:24:47;;;;;;;5.27;4.87;;;;;;;;;;5134546;27;20819;-63
2023/09/17 11:27:19;;;;;;;8.40;5.13;;;;;;;;;;5134689;27;20420;-63
2023/09/17 11:29:47;;;;;;;6.60;5.20;;;;;;;;;;5134782;27;20517;-63
2023/09/17 11:32:22;;;;;;;5.43;4.77;;;;;;;;;;5134197;27;20506;-63
2023/09/17 11:34:49;;;;;;;5.20;4.70;;;;;;;;;;5134968;27;20518;-64
2023/09/17 11:37:18;;;;;;;5.30;4.80;;;;;;;;;;5133757;27;20436;-63
2023/09/17 11:39:50;;;;;;;4.73;4.33;;;;;;;;;;5134103;27;20477;-63
2023/09/17 11:42:18;;;;;;;5.27;4.10;;;;;;;;;;5134443;27;20457;-63
2023/09/17 11:44:46;;;;;;;6.07;4.03;;;;;;;;;;5134805;27;20520;-63
2023/09/17 11:47:14;;;;;;;6.17;4.07;;;;;;;;;;5134622;27;20535;-63
2023/09/17 11:49:42;;;;;;;5.80;4.97;;;;;;;;;;5134377;27;20871;-63
2023/09/17 11:52:10;;;;;;;4.80;4.40;;;;;;;;;;5133819;27;20951;-63
2023/09/17 11:54:48;;;;;;;4.67;4.27;;;;;;;;;;5134677;27;20439;-63
2023/09/17 11:57:22;;;;;;;3.83;3.50;;;;;;;;;;5134371;27;20433;-63
2023/09/17 11:59:49;;;;;;;6.60;5.80;;;;;;;;;;5113661;28;20467;-63
2023/09/17 12:02:17;;;;;;;5.20;4.43;;;;;;;;;;5113363;28;20514;-63
2023/09/17 12:04:47;;;;;;;5.00;4.60;;;;;;;;;;5113704;28;20517;-63
2023/09/17 12:07:14;;;;;;;5.13;4.50;;;;;;;;;;5113664;28;20813;-63
2023/09/17 12:09:49;;;;;;;6.00;4.40;;;;;;;;;;5133390;27;20448;-64
2023/09/17 12:12:19;;;;;;;8.20;4.53;;;;;;;;;;5133894;27;20435;-64
2023/09/17 12:14:47;;;;;;;5.40;3.83;;;;;;;;;;5134578;27;20550;-64
2023/09/17 12:17:14;;;;;;;4.33;4.03;;;;;;;;;;5134163;27;20857;-64
2023/09/17 12:19:42;;;;;;;4.43;4.13;;;;;;;;;;5133508;27;21028;-64
2023/09/17 12:22:11;;;;;;;3.80;3.50;;;;;;;;;;5133259;27;20445;-64
2023/09/17 12:24:44;;;;;;;4.67;4.27;;;;;;;;;;5133988;27;20494;-64
2023/09/17 12:27:24;;;;;;;3.30;3.00;;;;;;;;;;5133798;27;20430;-64
2023/09/17 12:29:51;;;;;;;5.80;3.60;;;;;;;;;;5133936;27;20444;-64
2023/09/17 12:32:20;;;;;;;4.00;3.70;;;;;;;;;;5133496;27;20443;-63
2023/09/17 12:34:49;;;;;;;10.80;3.87;;;;;;;;;;5133891;27;20873;-64
2023/09/17 12:37:18;;;;;;;4.37;3.80;;;;;;;;;;5133962;28;20543;-63
2023/09/17 12:39:46;;;;;;;4.30;3.90;;;;;;;;;;5133984;28;21007;-64
2023/09/17 12:42:13;;;;;;;4.00;3.70;;;;;;;;;;5133958;28;20440;-64
2023/09/17 12:44:41;;;;;;;3.90;3.50;;;;;;;;;;5133742;28;20528;-63
2023/09/17 12:47:08;;;;;;;4.90;3.70;;;;;;;;;;5134142;28;20436;-64
2023/09/17 12:49:36;;;;;;;3.37;3.17;;;;;;;;;;5136678;27;20441;-64
2023/09/17 12:52:03;;;;;;;4.47;3.93;;;;;;;;;;5137988;27;20796;-63
2023/09/17 12:54:32;;;;;;;3.80;3.50;;;;;;;;;;5138508;27;20442;-63
2023/09/17 12:56:59;;;;;;;5.47;5.00;;;;;;;;;;5137547;27;20438;-64
2023/09/17 12:59:30;;;;;;;5.70;3.73;;;;;;;;;;5137465;27;20475;-64
2023/09/17 13:01:57;;;;;;;3.90;3.50;;;;;;;;;;5137669;27;20521;-64
2023/09/17 13:04:33;;;;;;;3.80;3.50;;;;;;;;;;5137868;27;20429;-64
2023/09/17 13:07:00;;;;;;;4.10;3.70;;;;;;;;;;5137564;27;20436;-64
2023/09/17 13:09:28;;;;;;;4.23;3.57;;;;;;;;;;5137844;27;20522;-64
2023/09/17 13:11:56;;;;;;;3.83;3.47;;;;;;;;;;5137539;27;20433;-64
2023/09/17 13:14:24;;;;;;;9.20;4.23;;;;;;;;;;5137261;27;20468;-63
2023/09/17 13:16:51;;;;;;;4.10;3.80;;;;;;;;;;5137495;27;21005;-64
2023/09/17 13:19:19;;;;;;;5.53;3.90;;;;;;;;;;5137590;27;20476;-63
2023/09/17 13:21:46;;;;;;;4.00;3.70;;;;;;;;;;5136510;27;20843;-63
2023/09/17 13:24:14;;;;;;;4.60;4.13;;;;;;;;;;5136655;27;20973;-64
2023/09/17 13:26:42;;;;;;;4.40;3.97;;;;;;;;;;5137429;27;20560;-63
2023/09/17 13:29:11;;;;;;;4.10;3.80;;;;;;;;;;5137268;27;20444;-63
2023/09/17 13:31:39;;;;;;;4.40;4.00;;;;;;;;;;5137118;27;20476;-64
2023/09/17 13:34:06;;;;;;;4.80;4.03;;;;;;;;;;5137059;27;20437;-63
2023/09/17 13:36:35;;;;;;;4.47;4.13;;;;;;;;;;5137222;27;20895;-63
2023/09/17 13:39:03;;;;;;;4.63;3.90;;;;;;;;;;5136939;27;20475;-63
2023/09/17 13:41:30;;;;;;;13.07;4.73;;;;;;;;;;5136454;27;20440;-63
2023/09/17 13:43:58;;;;;;;4.37;3.97;;;;;;;;;;5136449;27;20497;-63
2023/09/17 13:46:27;;;;;;;4.40;4.00;;;;;;;;;;5136789;27;20530;-63
2023/09/17 13:48:55;;;;;;;5.10;4.63;;;;;;;;;;5136815;27;20803;-63
2023/09/17 13:51:22;;;;;;;4.50;4.10;;;;;;;;;;5136765;27;20434;-63
2023/09/17 13:53:50;;;;;;;4.80;4.40;;;;;;;;;;5136255;27;20452;-63
2023/09/17 13:56:17;;;;;;;5.03;4.43;;;;;;;;;;5136608;27;20470;-63
2023/09/17 13:58:44;;;;;;;4.40;4.00;;;;;;;;;;5136473;27;20805;-63
2023/09/17 14:01:12;;;;;;;5.43;5.00;;;;;;;;;;5135471;27;20529;-63
2023/09/17 14:03:40;;;;;;;5.33;4.20;;;;;;;;;;5136131;27;20942;-63
2023/09/17 14:06:09;;;;;;;4.10;3.70;;;;;;;;;;5136125;27;20437;-63
2023/09/17 14:08:36;;;;;;;5.40;4.10;;;;;;;;;;5136572;27;20438;-63
2023/09/17 14:11:04;;;;;;;5.23;4.00;;;;;;;;;;5136627;27;20459;-63
2023/09/17 14:13:32;;;;;;;6.90;4.20;;;;;;;;;;5135748;27;20525;-63
2023/09/17 14:16:00;;;;;;;7.00;4.10;;;;;;;;;;5135800;27;20473;-63
2023/09/17 14:18:28;;;;;;;7.57;4.27;;;;;;;;;;5136318;27;20437;-64
2023/09/17 14:20:56;;;;;;;4.77;4.33;;;;;;;;;;5135333;27;20487;-63
2023/09/17 14:23:24;;;;;;;5.33;4.63;;;;;;;;;;5136061;27;20439;-63
2023/09/17 14:25:51;;;;;;;4.90;4.50;;;;;;;;;;5135919;27;20819;-64
2023/09/17 14:28:18;;;;;;;4.83;4.50;;;;;;;;;;5135949;27;20464;-63
2023/09/17 14:30:45;;;;;;;10.07;4.90;;;;;;;;;;5135942;27;20431;-63